TimeCDT,TemperatureF,Dew PointF,Humidity,Sea Level PressureIn,VisibilityMPH,Wind Direction,Wind SpeedMPH,Gust SpeedMPH,PrecipitationIn,Events,Conditions,WindDirDegrees,DateUTC
12:15 AM,31.6,20.5,63,30.16,10.0,NNW,6.9,-,N/A,,Clear,340,2012-10-10 05:15:00
12:35 AM,34.7,21.2,58,30.16,10.0,NNW,5.8,-,N/A,,Clear,340,2012-10-10 05:35:00
12:55 AM,29.7,19.4,66,30.16,10.0,NNW,4.6,-,N/A,,Clear,330,2012-10-10 05:55:00
1:15 AM,27.9,18.9,69,30.16,10.0,NNW,3.5,-,N/A,,Clear,340,2012-10-10 06:15:00
1:35 AM,27.3,19.2,72,30.17,10.0,NW,4.6,-,N/A,,Clear,320,2012-10-10 06:35:00
1:55 AM,27.5,20.3,74,30.17,10.0,Calm,Calm,-,N/A,,Clear,0,2012-10-10 06:55:00
2:15 AM,28.6,19.6,69,30.18,10.0,Calm,Calm,-,N/A,,Clear,0,2012-10-10 07:15:00
2:35 AM,27.9,19.2,70,30.18,10.0,NW,4.6,-,N/A,,Clear,320,2012-10-10 07:35:00
2:55 AM,25.5,18.3,74,30.18,10.0,Calm,Calm,-,N/A,,Clear,0,2012-10-10 07:55:00
3:15 AM,25.5,19.6,78,30.18,10.0,Calm,Calm,-,N/A,,Clear,0,2012-10-10 08:15:00
3:35 AM,26.4,19.2,74,30.18,10.0,Calm,Calm,-,N/A,,Clear,0,2012-10-10 08:35:00
3:55 AM,25.5,18.9,76,30.18,10.0,Calm,Calm,-,N/A,,Clear,0,2012-10-10 08:55:00
4:15 AM,25.3,18.9,76,30.18,10.0,Calm,Calm,-,N/A,,Clear,0,2012-10-10 09:15:00
4:35 AM,23.9,19.4,83,30.18,10.0,Calm,Calm,-,N/A,,Clear,0,2012-10-10 09:35:00
4:55 AM,25.5,19.9,79,30.18,10.0,Calm,Calm,-,N/A,,Clear,0,2012-10-10 09:55:00
5:15 AM,24.3,18.9,80,30.18,10.0,Calm,Calm,-,N/A,,Clear,0,2012-10-10 10:15:00
5:35 AM,24.4,19.4,81,30.18,10.0,Calm,Calm,-,N/A,,Clear,0,2012-10-10 10:35:00
5:55 AM,23.0,19.4,86,30.18,10.0,Calm,Calm,-,N/A,,Clear,0,2012-10-10 10:55:00
6:15 AM,23.7,18.5,80,30.19,10.0,Calm,Calm,-,N/A,,Clear,0,2012-10-10 11:15:00
6:35 AM,22.3,18.1,84,30.19,10.0,Calm,Calm,-,N/A,,Clear,0,2012-10-10 11:35:00
6:55 AM,22.1,17.4,82,30.19,10.0,Calm,Calm,-,N/A,,Clear,0,2012-10-10 11:55:00
7:15 AM,24.4,19.9,83,30.20,10.0,Calm,Calm,-,N/A,,Clear,0,2012-10-10 12:15:00
7:55 AM,25.5,20.5,81,30.20,10.0,NNW,3.5,-,N/A,,Clear,340,2012-10-10 12:55:00
8:35 AM,26.4,21.2,81,30.20,10.0,Calm,Calm,-,N/A,,Clear,0,2012-10-10 13:35:00
8:55 AM,31.8,24.4,74,30.20,10.0,Calm,Calm,-,N/A,,Scattered Clouds,0,2012-10-10 13:55:00
9:15 AM,33.1,24.8,72,30.20,10.0,Calm,Calm,-,N/A,,Mostly Cloudy,0,2012-10-10 14:15:00
9:35 AM,36.3,25.5,65,30.21,10.0,Calm,Calm,-,N/A,,Mostly Cloudy,0,2012-10-10 14:35:00
9:55 AM,39.4,26.6,60,30.20,10.0,Calm,Calm,-,N/A,,Mostly Cloudy,0,2012-10-10 14:55:00
10:15 AM,42.8,27.3,54,30.20,10.0,SSW,3.5,-,N/A,,Scattered Clouds,200,2012-10-10 15:15:00
10:35 AM,46.6,28.2,49,30.20,10.0,South,5.8,-,N/A,,Clear,170,2012-10-10 15:35:00
10:55 AM,50.4,26.2,39,30.20,10.0,SSW,8.1,-,N/A,,Clear,210,2012-10-10 15:55:00
11:15 AM,51.8,26.1,37,30.19,10.0,SSW,8.1,-,N/A,,Clear,200,2012-10-10 16:15:00
11:55 AM,55.0,26.6,33,30.18,10.0,South,11.5,-,N/A,,Clear,190,2012-10-10 16:55:00
12:15 PM,56.7,27.0,32,30.17,10.0,SSW,10.4,17.3,N/A,,Clear,200,2012-10-10 17:15:00
12:35 PM,58.1,27.3,31,30.16,10.0,SW,13.8,18.4,N/A,,Clear,220,2012-10-10 17:35:00
12:55 PM,59.4,27.5,30,30.14,10.0,South,12.7,19.6,N/A,,Clear,190,2012-10-10 17:55:00
1:15 PM,60.1,27.5,29,30.13,10.0,SW,13.8,19.6,N/A,,Clear,220,2012-10-10 18:15:00
1:35 PM,61.2,27.7,28,30.12,10.0,SW,16.1,19.6,N/A,,Clear,220,2012-10-10 18:35:00
1:55 PM,62.4,27.5,27,30.11,10.0,SSW,12.7,23.0,N/A,,Clear,210,2012-10-10 18:55:00
2:15 PM,63.1,28.2,27,30.09,10.0,SW,15.0,-,N/A,,Clear,220,2012-10-10 19:15:00
2:35 PM,64.8,28.2,25,30.07,10.0,SSW,16.1,20.7,N/A,,Clear,210,2012-10-10 19:35:00
2:55 PM,64.9,29.1,26,30.06,10.0,SW,17.3,23.0,N/A,,Clear,230,2012-10-10 19:55:00
3:15 PM,65.5,29.1,26,30.05,10.0,WSW,13.8,20.7,N/A,,Clear,240,2012-10-10 20:15:00
3:35 PM,66.4,29.1,25,30.03,10.0,SW,12.7,19.6,N/A,,Clear,230,2012-10-10 20:35:00
3:55 PM,67.1,29.1,24,30.03,10.0,SSW,13.8,20.7,N/A,,Clear,210,2012-10-10 20:55:00
4:15 PM,66.9,29.3,24,30.01,10.0,SSW,13.8,21.9,N/A,,Clear,210,2012-10-10 21:15:00
4:35 PM,67.1,29.7,25,30.01,10.0,SW,17.3,24.2,N/A,,Clear,230,2012-10-10 21:35:00
4:55 PM,66.6,29.3,25,30.00,10.0,SW,15.0,19.6,N/A,,Clear,230,2012-10-10 21:55:00
5:15 PM,66.2,28.4,24,29.99,10.0,SSW,15.0,20.7,N/A,,Clear,210,2012-10-10 22:15:00
5:35 PM,66.0,27.9,24,29.99,10.0,SSW,13.8,18.4,N/A,,Clear,210,2012-10-10 22:35:00
5:55 PM,65.3,27.5,24,29.99,10.0,SSW,12.7,20.7,N/A,,Clear,210,2012-10-10 22:55:00
6:15 PM,64.2,27.7,25,29.99,10.0,SSW,11.5,20.7,N/A,,Clear,210,2012-10-10 23:15:00
6:35 PM,62.8,27.7,27,29.99,10.0,SSW,11.5,-,N/A,,Clear,200,2012-10-10 23:35:00
6:55 PM,60.8,27.7,28,29.99,10.0,SSW,8.1,-,N/A,,Clear,200,2012-10-10 23:55:00
7:15 PM,56.7,27.3,33,29.99,10.0,South,8.1,-,N/A,,Clear,190,2012-10-11 00:15:00
7:35 PM,54.7,27.0,34,29.99,10.0,South,4.6,-,N/A,,Clear,180,2012-10-11 00:35:00
7:55 PM,51.4,26.6,38,29.99,10.0,South,6.9,-,N/A,,Clear,170,2012-10-11 00:55:00
8:15 PM,50.9,26.2,38,29.99,10.0,SSE,6.9,-,N/A,,Clear,160,2012-10-11 01:15:00
8:35 PM,49.6,26.2,40,29.99,10.0,South,5.8,-,N/A,,Clear,170,2012-10-11 01:35:00
8:55 PM,48.2,26.4,43,29.99,10.0,South,6.9,-,N/A,,Clear,170,2012-10-11 01:55:00
9:15 PM,48.4,26.6,43,29.99,10.0,South,4.6,-,N/A,,Clear,180,2012-10-11 02:15:00
9:35 PM,49.3,27.0,42,29.99,10.0,South,6.9,-,N/A,,Clear,170,2012-10-11 02:35:00
9:55 PM,49.3,26.8,42,29.99,10.0,South,6.9,-,N/A,,Clear,170,2012-10-11 02:55:00
10:15 PM,49.3,27.0,42,29.99,10.0,South,5.8,-,N/A,,Clear,170,2012-10-11 03:15:00
10:35 PM,49.1,27.0,42,29.99,10.0,South,5.8,-,N/A,,Clear,180,2012-10-11 03:35:00
10:55 PM,48.6,27.0,43,30.00,10.0,South,5.8,-,N/A,,Clear,180,2012-10-11 03:55:00
11:15 PM,48.6,27.0,43,29.99,10.0,SSE,4.6,-,N/A,,Clear,160,2012-10-11 04:15:00
11:35 PM,47.8,27.0,44,29.99,10.0,South,5.8,-,N/A,,Clear,170,2012-10-11 04:35:00
11:55 PM,48.7,27.0,43,29.99,10.0,South,6.9,-,N/A,,Clear,180,2012-10-11 04:55:00